Time;durP1;ratioP1;P1;durP2;ratioP2;P2;SDS_P1;SDS_P2;PMS_P1;PMS_P2;Temp;Humidity;BMP_temperature;BMP_pressure;BME280_temperature;BME280_humidity;BME280_pressure;Samples;Min_cycle;Max_cycle;Signal;HPM_P1;HPM_P2
2022/06/05 00:00:32;;;;;;;;;5.67;5.00;;;;;18.99;87.27;100950.19;5117386;27;45247;-75
2022/06/05 00:03:10;;;;;;;;;6.33;4.67;;;;;18.96;87.65;100939.88;5101835;27;45420;-75
2022/06/05 00:05:43;;;;;;;;;5.00;5.00;;;;;18.90;87.85;100937.06;5085789;27;45348;-75
2022/06/05 00:08:27;;;;;;;;;5.33;4.67;;;;;18.95;87.93;100938.25;5079450;28;48629;-75
2022/06/05 00:10:58;;;;;;;;;6.00;6.00;;;;;18.96;88.29;100932.63;5080685;28;45500;-75
2022/06/05 00:13:30;;;;;;;;;5.67;5.33;;;;;18.97;88.49;100920.00;5081314;28;45336;-76
2022/06/05 00:15:56;;;;;;;;;8.67;8.67;;;;;18.93;88.42;100906.16;5080927;28;45329;-76
2022/06/05 00:18:21;;;;;;;;;9.00;6.00;;;;;18.91;88.25;100897.47;5080989;28;45372;-75
2022/06/05 00:20:47;;;;;;;;;5.00;5.00;;;;;18.93;88.41;100896.22;5080790;28;45304;-75
2022/06/05 00:23:12;;;;;;;;;7.00;6.33;;;;;18.98;88.31;100903.63;5081126;27;45394;-75
2022/06/05 00:25:57;;;;;;;;;6.33;6.33;;;;;18.94;88.04;100894.31;5079152;28;45738;-76
2022/06/05 00:28:43;;;;;;;;;5.00;5.00;;;;;18.95;88.07;100898.69;5080760;28;46409;-76
2022/06/05 00:31:11;;;;;;;;;7.00;5.00;;;;;18.95;88.05;100903.25;5089097;27;45539;-75
2022/06/05 00:33:40;;;;;;;;;8.67;7.33;;;;;18.93;88.10;100898.91;5079730;28;45260;-75
2022/06/05 00:36:21;;;;;;;;;6.33;5.67;;;;;18.93;88.14;100909.69;5080634;27;45665;-75
2022/06/05 00:39:08;;;;;;;;;9.33;8.33;;;;;18.91;88.13;100911.75;5080615;28;45326;-75
2022/06/05 00:42:18;;;;;;;;;7.00;7.00;;;;;18.91;88.04;100913.63;5078791;28;45454;-75
2022/06/05 00:44:51;;;;;;;;;7.00;7.00;;;;;18.91;88.01;100910.94;5079309;28;45389;-75
2022/06/05 00:47:20;;;;;;;;;7.00;7.00;;;;;18.79;88.44;100890.16;5080468;27;45265;-75
2022/06/05 00:49:58;;;;;;;;;8.00;7.00;;;;;18.87;88.32;100901.66;5080407;28;46173;-75
2022/06/05 00:52:27;;;;;;;;;8.00;8.00;;;;;18.82;87.94;100882.69;5080566;27;45371;-76
2022/06/05 00:54:52;;;;;;;;;6.00;6.00;;;;;18.79;87.84;100865.94;5079209;28;45281;-75
2022/06/05 00:57:18;;;;;;;;;5.00;5.00;;;;;18.84;87.89;100886.78;5080061;28;45590;-76
2022/06/05 00:59:46;;;;;;;;;9.00;8.00;;;;;18.83;87.76;100895.09;5080372;27;45373;-75
2022/06/05 01:02:14;;;;;;;;;8.67;8.00;;;;;18.79;87.80;100905.47;5080391;28;45303;-76
2022/06/05 01:04:43;;;;;;;;;10.00;9.33;;;;;18.75;87.83;100904.28;5088044;27;45373;-76
2022/06/05 01:07:09;;;;;;;;;6.00;6.00;;;;;18.75;88.40;100909.69;5099996;27;45444;-76
2022/06/05 01:09:36;;;;;;;;;6.00;6.00;;;;;18.68;87.79;100915.16;5100276;27;45318;-76
2022/06/05 01:12:41;;;;;;;;;7.67;7.67;;;;;18.67;88.68;100906.25;5100412;27;45247;-76
2022/06/05 01:15:20;;;;;;;;;9.00;9.00;;;;;18.75;88.30;100907.00;5092718;27;45360;-76
2022/06/05 01:18:13;;;;;;;;;9.00;9.00;;;;;18.71;88.47;100886.97;5100598;27;45341;-76
2022/06/05 01:21:03;;;;;;;;;11.00;9.00;;;;;18.73;88.12;100879.47;5098874;27;48215;-75
2022/06/05 01:23:58;;;;;;;;;7.33;7.33;;;;;18.71;88.33;100870.81;5100415;27;45622;-75
2022/06/05 01:26:38;;;;;;;;;8.33;8.33;;;;;18.68;88.11;100859.44;5094760;27;45370;-75
2022/06/05 01:29:18;;;;;;;;;11.00;9.00;;;;;18.67;88.44;100854.28;5100305;27;45303;-75
2022/06/05 01:31:52;;;;;;;;;10.00;10.00;;;;;18.57;88.33;100830.59;5100204;27;45265;-76
2022/06/05 01:34:35;;;;;;;;;9.00;9.00;;;;;18.67;88.22;100830.88;5098748;27;45865;-75
2022/06/05 01:37:10;;;;;;;;;8.00;8.00;;;;;18.64;88.18;100825.13;5099099;27;45391;-76
2022/06/05 01:39:46;;;;;;;;;11.00;11.00;;;;;18.65;88.17;100821.41;5100081;27;45401;-75
2022/06/05 01:42:18;;;;;;;;;13.33;13.33;;;;;18.64;88.19;100823.25;5132666;27;47623;-76
2022/06/05 01:44:47;;;;;;;;;13.67;11.67;;;;;18.61;88.31;100812.09;5100097;27;45322;-75
2022/06/05 01:47:23;;;;;;;;;11.67;11.67;;;;;18.58;88.44;100810.69;5133485;27;45315;-75
2022/06/05 01:50:01;;;;;;;;;10.00;10.00;;;;;18.56;88.21;100799.34;5115632;27;46082;-76
2022/06/05 01:52:37;;;;;;;;;11.33;11.33;;;;;18.48;88.57;100781.66;5100021;27;46383;-76
2022/06/05 01:55:12;;;;;;;;;10.67;10.67;;;;;18.54;88.29;100793.38;5100017;27;45413;-76
2022/06/05 01:57:38;;;;;;;;;11.33;9.67;;;;;18.47;88.25;100784.56;5099991;27;45136;-76
2022/06/05 02:00:19;;;;;;;;;14.33;14.33;;;;;18.49;88.36;100788.66;5099740;27;45756;-76
2022/06/05 02:03:03;;;;;;;;;10.33;10.00;;;;;18.51;88.57;100791.97;5132944;27;46937;-76
2022/06/05 02:05:39;;;;;;;;;10.67;10.67;;;;;18.44;88.49;100785.84;5084985;27;45353;-75
2022/06/05 02:08:28;;;;;;;;;12.33;11.67;;;;;18.46;88.36;100794.50;5079242;28;45168;-75
2022/06/05 02:11:12;;;;;;;;;13.00;12.67;;;;;18.42;88.93;100766.41;5078767;27;45427;-76
2022/06/05 02:13:37;;;;;;;;;13.33;12.33;;;;;18.41;88.75;100770.94;5079229;28;46342;-76
2022/06/05 02:16:03;;;;;;;;;13.00;13.00;;;;;18.42;88.48;100774.47;5077941;28;45610;-76
2022/06/05 02:18:28;;;;;;;;;12.33;12.33;;;;;18.38;88.78;100763.31;5078128;28;45455;-76
2022/06/05 02:20:54;;;;;;;;;11.00;11.00;;;;;18.38;88.86;100751.75;5114780;27;46041;-76
2022/06/05 02:23:23;;;;;;;;;13.00;13.00;;;;;18.42;88.72;100764.53;5082674;28;45384;-76
2022/06/05 02:25:49;;;;;;;;;13.67;13.33;;;;;18.40;88.93;100760.41;5082744;28;45259;-76
2022/06/05 02:28:16;;;;;;;;;13.00;12.67;;;;;18.42;89.21;100758.34;5081275;28;45350;-77
2022/06/05 02:30:52;;;;;;;;;11.00;10.33;;;;;18.37;88.73;100755.47;5082741;27;45435;-76
2022/06/05 02:33:42;;;;;;;;;11.67;11.67;;;;;18.44;88.83;100758.94;5082542;27;45940;-76
2022/06/05 02:36:41;;;;;;;;;13.67;13.67;;;;;18.46;88.75;100761.41;5082554;28;45361;-77
2022/06/05 02:39:41;;;;;;;;;10.33;10.33;;;;;18.44;88.44;100761.63;5082585;27;45419;-76
2022/06/05 02:42:28;;;;;;;;;12.00;12.00;;;;;18.44;89.17;100758.09;5081970;28;45478;-76
2022/06/05 02:45:12;;;;;;;;;13.33;13.33;;;;;18.37;88.89;100744.72;5082530;27;46289;-75
2022/06/05 02:47:48;;;;;;;;;15.33;15.00;;;;;18.36;88.98;100740.41;5082615;28;45457;-76
2022/06/05 02:50:29;;;;;;;;;14.33;14.00;;;;;18.41;89.10;100744.03;5082482;28;45369;-76
2022/06/05 02:53:07;;;;;;;;;15.67;14.00;;;;;18.40;88.71;100733.50;5082318;28;45343;-75
2022/06/05 02:55:32;;;;;;;;;14.00;10.33;;;;;18.39;89.01;100726.50;5080980;28;47534;-76
2022/06/05 02:57:58;;;;;;;;;15.33;15.00;;;;;18.35;88.99;100717.25;5082064;28;45345;-76
2022/06/05 03:00:27;;;;;;;;;14.67;14.67;;;;;18.38;88.85;100728.34;5082393;27;45264;-77
2022/06/05 03:05:38;;;;;;;;;13.67;13.67;;;;;18.36;89.14;100725.09;5097573;27;45262;-78
2022/06/05 03:08:05;;;;;;;;;16.00;15.00;;;;;18.35;89.28;100728.00;5102411;27;45437;-76
2022/06/05 03:10:30;;;;;;;;;12.67;12.67;;;;;18.36;89.00;100729.63;5102659;27;45258;-76
2022/06/05 03:12:56;;;;;;;;;13.00;13.00;;;;;18.35;88.93;100734.19;5102281;27;45382;-77
2022/06/05 03:15:22;;;;;;;;;15.33;13.33;;;;;18.32;89.17;100739.22;5102533;27;46043;-76
2022/06/05 03:17:47;;;;;;;;;17.00;15.67;;;;;18.19;89.20;100724.88;5102262;27;45321;-76
2022/06/05 03:20:15;;;;;;;;;15.67;14.67;;;;;18.26;89.46;100730.19;5102546;27;45255;-77
2022/06/05 03:22:41;;;;;;;;;16.00;16.00;;;;;18.23;89.74;100725.25;5102337;27;45316;-77
2022/06/05 03:25:08;;;;;;;;;17.67;16.00;;;;;18.27;89.51;100743.41;5100787;27;47162;-77
2022/06/05 03:27:33;;;;;;;;;16.33;16.33;;;;;18.26;89.19;100743.63;5101962;27;45316;-76
2022/06/05 03:29:59;;;;;;;;;12.00;12.00;;;;;18.24;89.71;100751.09;5101971;27;45389;-76
2022/06/05 03:32:25;;;;;;;;;14.67;14.00;;;;;18.20;89.76;100755.28;5102145;27;45366;-77
2022/06/05 03:34:51;;;;;;;;;14.00;14.00;;;;;18.24;89.45;100789.59;5101908;27;46302;-76
2022/06/05 03:37:16;;;;;;;;;14.00;13.00;;;;;18.17;89.46;100768.13;5102009;27;45361;-75
2022/06/05 03:39:42;;;;;;;;;16.00;14.67;;;;;18.19;89.95;100796.69;5102220;27;45754;-76
2022/06/05 03:42:07;;;;;;;;;17.00;16.00;;;;;18.12;89.53;100786.00;5101601;27;45387;-76
2022/06/05 03:44:42;;;;;;;;;18.00;18.00;;;;;18.22;89.76;100804.28;5102104;27;45778;-78
2022/06/05 03:47:08;;;;;;;;;14.67;14.67;;;;;18.09;90.34;100797.16;5101993;27;45305;-76
2022/06/05 03:49:34;;;;;;;;;16.33;15.33;;;;;18.20;90.36;100819.84;5102134;27;45333;-77
2022/06/05 03:52:00;;;;;;;;;14.67;13.33;;;;;18.16;90.00;100806.00;5101848;27;45321;-76
2022/06/05 03:54:26;;;;;;;;;15.33;15.33;;;;;18.20;90.23;100818.00;5101764;27;45274;-77
2022/06/05 03:56:51;;;;;;;;;16.00;16.00;;;;;18.24;90.08;100824.56;5100219;27;45308;-76
2022/06/05 03:59:16;;;;;;;;;19.33;16.00;;;;;18.27;90.03;100828.66;5101965;27;45265;-77
2022/06/05 04:01:42;;;;;;;;;15.33;13.67;;;;;18.24;89.62;100832.63;5101646;27;45302;-77
2022/06/05 04:04:07;;;;;;;;;16.33;15.67;;;;;18.22;90.04;100840.09;5098313;27;48379;-76
2022/06/05 04:06:33;;;;;;;;;17.67;17.00;;;;;18.23;90.27;100827.47;5079699;28;45540;-76
2022/06/05 04:09:04;;;;;;;;;17.33;17.33;;;;;18.17;90.09;100832.69;5081226;27;45355;-77
2022/06/05 04:11:31;;;;;;;;;19.33;18.67;;;;;18.24;90.22;100837.16;5112905;27;45443;-77
2022/06/05 04:13:57;;;;;;;;;19.00;19.00;;;;;18.14;90.44;100819.69;5081231;27;45228;-76
2022/06/05 04:16:26;;;;;;;;;17.00;17.00;;;;;18.20;90.17;100828.75;5079636;28;45292;-77
2022/06/05 04:18:52;;;;;;;;;17.00;17.00;;;;;18.24;89.83;100851.44;5079957;28;45365;-77
2022/06/05 04:21:21;;;;;;;;;16.33;15.67;;;;;18.22;89.80;100842.78;5080771;28;45298;-76
2022/06/05 04:23:47;;;;;;;;;15.33;15.00;;;;;18.21;89.67;100841.13;5080921;28;46606;-76
2022/06/05 04:26:15;;;;;;;;;17.67;16.00;;;;;18.29;90.15;100854.28;5080561;28;45449;-76
2022/06/05 04:28:41;;;;;;;;;20.00;20.00;;;;;18.23;90.00;100849.78;5081163;27;45310;-76
2022/06/05 04:31:19;;;;;;;;;18.00;16.67;;;;;18.28;90.15;100858.03;5079396;28;47402;-76
2022/06/05 04:33:46;;;;;;;;;17.00;15.67;;;;;18.30;90.01;100863.19;5092139;27;48621;-76
2022/06/05 04:36:12;;;;;;;;;17.67;17.67;;;;;18.35;89.66;100874.09;5071903;28;45240;-76
2022/06/05 04:38:37;;;;;;;;;17.00;17.00;;;;;18.33;89.95;100876.19;5072759;28;45271;-77
2022/06/05 04:41:03;;;;;;;;;17.67;17.67;;;;;18.33;89.91;100881.56;5075566;27;45298;-76
2022/06/05 04:43:28;;;;;;;;;17.00;16.00;;;;;18.35;90.20;100884.03;5079375;27;45366;-76
2022/06/05 04:45:53;;;;;;;;;15.67;15.00;;;;;18.39;89.62;100896.00;5080691;27;46628;-77
2022/06/05 04:48:18;;;;;;;;;16.00;15.33;;;;;18.38;89.87;100883.59;5079171;28;46014;-77
2022/06/05 04:50:44;;;;;;;;;17.00;15.00;;;;;18.46;89.78;100894.06;5080500;28;45355;-76
2022/06/05 04:53:09;;;;;;;;;17.67;17.67;;;;;18.49;89.73;100892.78;5080538;27;45929;-76
2022/06/05 04:55:36;;;;;;;;;17.00;15.50;;;;;18.46;90.17;100891.34;5080576;27;45372;-76
2022/06/05 04:58:02;;;;;;;;;17.67;17.67;;;;;18.56;89.77;100901.63;5079100;28;45388;-75
2022/06/05 05:00:27;;;;;;;;;19.67;19.00;;;;;18.51;89.50;100902.28;5067085;27;45337;-75
2022/06/05 05:02:52;;;;;;;;;17.33;17.33;;;;;18.55;89.88;100922.31;5069473;28;45443;-75
2022/06/05 05:05:18;;;;;;;;;15.33;14.33;;;;;18.54;90.08;100919.84;5078511;27;45359;-76
2022/06/05 05:07:43;;;;;;;;;15.00;14.00;;;;;18.48;89.74;100913.50;5094029;27;45261;-77
2022/06/05 05:10:09;;;;;;;;;14.67;14.67;;;;;18.53;89.88;100913.63;5080213;27;45258;-77
2022/06/05 05:12:34;;;;;;;;;13.33;13.33;;;;;18.51;90.07;100915.75;5079630;27;46021;-75
2022/06/05 05:15:00;;;;;;;;;13.67;13.67;;;;;18.44;89.79;100911.47;5095879;27;45323;-75
2022/06/05 05:17:25;;;;;;;;;13.00;13.00;;;;;18.53;89.99;100923.59;5080294;27;45323;-74
2022/06/05 05:19:51;;;;;;;;;13.00;12.00;;;;;18.55;90.43;100910.72;5095873;27;47112;-77
2022/06/05 05:22:16;;;;;;;;;14.00;13.67;;;;;18.54;90.26;100915.31;5079987;27;45312;-76
2022/06/05 05:24:43;;;;;;;;;13.33;12.00;;;;;18.67;90.69;100916.19;5079898;27;45369;-75
2022/06/05 05:27:08;;;;;;;;;13.67;13.67;;;;;18.63;90.42;100909.59;5079782;27;45456;-75
2022/06/05 05:29:34;;;;;;;;;10.33;10.33;;;;;18.71;90.56;100913.88;5079788;27;45708;-76
2022/06/05 05:32:00;;;;;;;;;13.67;13.67;;;;;18.69;90.57;100900.63;5079811;27;45325;-76
2022/06/05 05:34:25;;;;;;;;;12.67;11.00;;;;;18.79;90.80;100897.41;5095320;27;45298;-76
2022/06/05 05:36:50;;;;;;;;;13.00;13.00;;;;;18.79;90.36;100894.72;5079844;28;45387;-77
2022/06/05 05:42:05;;;;;;;;;11.33;11.33;;;;;18.92;90.65;100883.78;5079190;28;45419;-76
2022/06/05 05:44:46;;;;;;;;;12.00;11.00;;;;;18.98;90.90;100875.84;5079824;27;45355;-76
2022/06/05 05:47:24;;;;;;;;;9.00;9.00;;;;;19.11;90.60;100889.19;5079778;27;45377;-77
2022/06/05 05:49:54;;;;;;;;;12.00;12.00;;;;;19.20;90.37;100891.53;5079774;27;45379;-76
2022/06/05 05:52:19;;;;;;;;;11.33;11.33;;;;;19.21;90.34;100885.13;5079320;28;45367;-77
2022/06/05 05:54:45;;;;;;;;;11.00;11.00;;;;;19.33;90.54;100898.63;5079372;27;45348;-75
2022/06/05 05:57:10;;;;;;;;;11.67;11.67;;;;;19.39;90.67;100889.59;5079519;27;45315;-76
2022/06/05 05:59:36;;;;;;;;;12.67;9.33;;;;;19.45;89.87;100880.59;5095250;27;45952;-76
2022/06/05 06:02:03;;;;;;;;;13.67;11.67;;;;;19.55;89.94;100878.16;5095180;27;47205;-75
2022/06/05 06:04:28;;;;;;;;;10.00;10.00;;;;;19.65;90.12;100869.53;5085418;27;45277;-75
2022/06/05 06:06:54;;;;;;;;;11.33;9.33;;;;;19.67;89.70;100859.31;5098712;27;45259;-76
2022/06/05 06:09:20;;;;;;;;;11.67;11.67;;;;;19.77;90.22;100852.53;5115531;27;45972;-75
2022/06/05 06:11:46;;;;;;;;;9.00;8.67;;;;;19.87;89.48;100851.97;5099538;27;45332;-76
2022/06/05 06:14:11;;;;;;;;;10.33;9.33;;;;;19.92;88.88;100849.38;5100004;27;45347;-77
2022/06/05 06:16:37;;;;;;;;;10.33;10.33;;;;;19.98;89.03;100858.41;5099715;27;45282;-76
2022/06/05 06:19:02;;;;;;;;;11.00;10.33;;;;;20.00;89.13;100851.72;5099881;27;45333;-78
2022/06/05 06:21:28;;;;;;;;;9.67;8.00;;;;;20.04;88.88;100849.41;5098146;27;48149;-76
2022/06/05 06:23:53;;;;;;;;;9.33;9.33;;;;;20.14;88.71;100846.94;5099830;27;45427;-77
2022/06/05 06:26:19;;;;;;;;;9.67;9.67;;;;;20.17;88.95;100851.84;5091707;27;45409;-76
2022/06/05 06:28:44;;;;;;;;;12.00;12.00;;;;;20.18;89.03;100850.78;5078313;27;45461;-75
2022/06/05 06:31:14;;;;;;;;;8.00;8.00;;;;;20.17;89.18;100845.63;5085868;27;49889;-75
2022/06/05 06:33:39;;;;;;;;;9.67;9.67;;;;;20.20;88.67;100847.84;5083738;28;45740;-76
2022/06/05 06:36:11;;;;;;;;;11.67;10.67;;;;;20.26;88.90;100857.72;5082150;28;45751;-75
2022/06/05 06:38:37;;;;;;;;;10.00;9.00;;;;;20.29;88.64;100868.03;5080724;27;45392;-78
2022/06/05 06:41:05;;;;;;;;;9.67;9.67;;;;;20.31;88.21;100862.41;5082129;27;46821;-77
2022/06/05 06:43:32;;;;;;;;;10.67;10.00;;;;;20.24;88.39;100853.63;5079860;27;45946;-76
2022/06/05 06:45:58;;;;;;;;;10.33;9.67;;;;;20.34;88.20;100869.19;5079046;27;45362;-75
2022/06/05 06:48:25;;;;;;;;;9.00;9.00;;;;;20.36;87.90;100867.09;5094499;27;46125;-79
2022/06/05 06:50:53;;;;;;;;;9.33;9.33;;;;;20.37;88.37;100869.56;5074707;28;47466;-79
2022/06/05 06:53:19;;;;;;;;;11.00;11.00;;;;;20.36;88.42;100856.28;5076189;27;45447;-78
2022/06/05 06:55:44;;;;;;;;;7.00;7.00;;;;;20.38;88.40;100856.88;5091764;27;45308;-78
2022/06/05 06:58:10;;;;;;;;;10.00;9.00;;;;;20.32;88.24;100850.53;5076310;27;45628;-78
2022/06/05 07:00:36;;;;;;;;;9.00;9.00;;;;;20.29;88.80;100843.75;5076260;27;45396;-79
2022/06/05 07:03:01;;;;;;;;;9.00;9.00;;;;;20.34;88.19;100844.91;5076484;28;45335;-79
2022/06/05 07:05:26;;;;;;;;;9.67;8.33;;;;;20.39;88.16;100850.41;5091986;27;45332;-78
2022/06/05 07:07:52;;;;;;;;;11.00;9.00;;;;;20.34;88.90;100840.34;5101148;27;46067;-79
2022/06/05 07:10:17;;;;;;;;;7.33;7.33;;;;;20.40;88.70;100836.69;5102592;27;45239;-78
2022/06/05 07:12:42;;;;;;;;;8.67;8.67;;;;;20.46;87.75;100840.31;5102374;27;45280;-78
2022/06/05 07:15:09;;;;;;;;;10.00;10.00;;;;;20.44;87.96;100839.72;5101331;27;45383;-78
2022/06/05 07:17:34;;;;;;;;;8.67;8.67;;;;;20.51;88.38;100836.91;5101160;27;47432;-78
2022/06/05 07:19:59;;;;;;;;;13.00;10.67;;;;;20.51;88.33;100840.44;5100737;27;47039;-78
2022/06/05 07:22:25;;;;;;;;;8.67;8.67;;;;;20.54;88.05;100839.13;5102484;27;45481;-78
2022/06/05 07:24:51;;;;;;;;;7.33;7.33;;;;;20.59;88.43;100835.72;5135623;27;45317;-78
2022/06/05 07:27:17;;;;;;;;;8.00;8.00;;;;;20.63;88.18;100826.06;5101941;27;45352;-79
2022/06/05 07:29:42;;;;;;;;;9.00;9.00;;;;;20.62;88.61;100821.72;5102258;27;46362;-78
2022/06/05 07:32:08;;;;;;;;;8.33;8.33;;;;;20.65;88.11;100824.75;5102181;27;45297;-78
2022/06/05 07:34:33;;;;;;;;;7.00;7.00;;;;;20.68;87.99;100820.75;5101022;27;45423;-78
2022/06/05 07:36:59;;;;;;;;;7.67;7.67;;;;;20.68;87.62;100810.78;5102325;27;45206;-78
2022/06/05 07:39:26;;;;;;;;;8.67;7.33;;;;;20.76;87.77;100824.94;5102014;27;46053;-78
2022/06/05 07:41:52;;;;;;;;;7.67;7.00;;;;;20.80;87.58;100826.13;5101779;27;45272;-78
2022/06/05 07:44:17;;;;;;;;;8.00;8.00;;;;;20.83;88.30;100819.41;5102022;27;45464;-78
2022/06/05 07:46:43;;;;;;;;;7.67;7.67;;;;;20.87;87.65;100821.41;5102098;27;45506;-79
2022/06/05 07:49:09;;;;;;;;;8.00;8.00;;;;;20.95;87.41;100822.91;5102137;27;45517;-79
2022/06/05 07:54:31;;;;;;;;;9.67;8.67;;;;;20.99;88.46;100813.28;5101831;27;45449;-78
2022/06/05 07:56:57;;;;;;;;;7.00;7.00;;;;;21.09;88.38;100822.59;5117321;27;46284;-78
2022/06/05 07:59:23;;;;;;;;;7.67;7.67;;;;;21.11;88.45;100812.38;5100301;27;48379;-78
2022/06/05 08:01:49;;;;;;;;;9.00;9.00;;;;;21.15;88.00;100808.94;5101748;27;45331;-78
2022/06/05 08:04:14;;;;;;;;;9.33;9.33;;;;;21.22;87.95;100814.19;5097690;27;45271;-79
2022/06/05 08:06:39;;;;;;;;;8.33;8.33;;;;;21.25;88.16;100805.59;5081257;28;45343;-78
2022/06/05 08:09:06;;;;;;;;;10.00;9.67;;;;;21.35;87.55;100815.78;5080969;28;45461;-79
2022/06/05 08:11:35;;;;;;;;;10.00;10.00;;;;;21.44;87.62;100821.59;5080826;27;45229;-78
2022/06/05 08:14:01;;;;;;;;;11.00;9.67;;;;;21.51;86.54;100816.00;5081185;27;45458;-78
2022/06/05 08:16:27;;;;;;;;;11.00;10.67;;;;;21.52;85.97;100815.75;5080957;28;45329;-78
2022/06/05 08:18:53;;;;;;;;;10.67;10.00;;;;;21.52;85.97;100813.03;5080937;28;45993;-79
2022/06/05 08:21:19;;;;;;;;;9.00;9.00;;;;;21.56;85.56;100810.69;5080948;27;45389;-78
2022/06/05 08:23:45;;;;;;;;;10.00;8.67;;;;;21.72;85.89;100819.84;5081170;27;45238;-78
2022/06/05 08:26:10;;;;;;;;;10.33;9.00;;;;;21.79;85.48;100815.09;5080574;27;45493;-78
2022/06/05 08:28:36;;;;;;;;;12.33;10.00;;;;;21.74;85.59;100801.50;5079345;28;47397;-79
2022/06/05 08:31:02;;;;;;;;;11.67;11.67;;;;;21.81;85.19;100812.16;5080820;28;45193;-79
2022/06/05 08:33:27;;;;;;;;;10.00;10.00;;;;;21.92;84.58;100819.38;5080974;28;45167;-78
2022/06/05 08:35:52;;;;;;;;;9.33;9.33;;;;;21.85;84.79;100807.88;5080840;27;45209;-78
2022/06/05 08:41:27;;;;;;;;;11.00;11.00;;;;;22.05;84.39;100839.81;5073091;27;45351;-80
2022/06/05 08:44:21;;;;;;;;;11.33;11.33;;;;;22.19;84.04;100837.59;5060662;28;45340;-78
2022/06/05 08:46:53;;;;;;;;;12.67;12.67;;;;;22.18;83.47;100830.50;5072921;28;45362;-78
2022/06/05 08:49:47;;;;;;;;;10.00;10.00;;;;;22.16;82.43;100842.66;5081539;27;46231;-78
2022/06/05 08:52:15;;;;;;;;;12.00;12.00;;;;;22.15;82.69;100847.25;5080102;28;45365;-78
2022/06/05 08:54:51;;;;;;;;;12.33;12.33;;;;;22.12;83.47;100855.06;5082481;27;45324;-79
2022/06/05 08:57:30;;;;;;;;;10.00;10.00;;;;;22.09;82.80;100848.28;5078974;27;45372;-79
2022/06/05 09:00:12;;;;;;;;;13.00;13.00;;;;;22.04;83.06;100867.97;5073264;28;47240;-79
2022/06/05 09:03:02;;;;;;;;;12.67;12.00;;;;;22.02;82.62;100861.13;5076759;28;45483;-80
2022/06/05 09:05:34;;;;;;;;;13.33;13.33;;;;;22.05;83.42;100857.94;5082058;27;45562;-80
2022/06/05 09:08:08;;;;;;;;;13.00;13.00;;;;;22.11;82.97;100864.25;5077120;27;45270;-78
2022/06/05 09:10:52;;;;;;;;;14.33;14.00;;;;;22.13;82.79;100867.53;5072807;28;46219;-80
2022/06/05 09:13:30;;;;;;;;;13.00;13.00;;;;;22.15;83.20;100878.94;5080076;28;45333;-79
2022/06/05 09:16:04;;;;;;;;;10.67;10.67;;;;;22.16;83.21;100881.38;5080368;27;45394;-79
2022/06/05 09:18:37;;;;;;;;;11.33;11.33;;;;;22.13;82.41;100881.06;5080087;27;45319;-79
2022/06/05 09:21:15;;;;;;;;;13.67;12.33;;;;;22.05;82.60;100882.28;5080493;27;46306;-79
2022/06/05 09:23:40;;;;;;;;;11.00;11.00;;;;;22.00;83.18;100891.16;5095815;27;45552;-80
2022/06/05 09:26:27;;;;;;;;;12.67;11.67;;;;;21.90;83.96;100891.81;5079781;28;45318;-80
2022/06/05 09:29:08;;;;;;;;;7.33;6.67;;;;;21.70;84.38;100895.00;5079446;27;45342;-79
2022/06/05 09:31:55;;;;;;;;;12.67;12.67;;;;;21.68;84.56;100900.66;5078278;28;47548;-79
2022/06/05 09:34:33;;;;;;;;;12.67;12.33;;;;;21.54;85.21;100896.63;5079051;27;45655;-80
2022/06/05 09:37:25;;;;;;;;;13.33;13.33;;;;;21.52;85.63;100904.16;5077865;28;45452;-78
2022/06/05 09:40:08;;;;;;;;;12.67;12.67;;;;;21.43;85.48;100911.88;5073747;27;46165;-78
2022/06/05 09:42:52;;;;;;;;;13.67;13.67;;;;;21.38;86.14;100903.66;5073869;28;46311;-76
2022/06/05 09:45:38;;;;;;;;;14.67;14.67;;;;;21.24;86.80;100886.91;5070988;27;45409;-78
2022/06/05 09:48:24;;;;;;;;;11.33;11.33;;;;;21.24;86.87;100912.06;5077080;27;45342;-76
2022/06/05 09:50:51;;;;;;;;;15.33;14.33;;;;;21.20;87.26;100913.59;5096038;27;46788;-76
2022/06/05 09:53:23;;;;;;;;;15.67;15.67;;;;;21.17;87.29;100914.09;5079485;28;45385;-76
2022/06/05 09:55:51;;;;;;;;;15.33;14.33;;;;;21.14;87.51;100910.00;5079365;28;45226;-78
2022/06/05 09:58:25;;;;;;;;;18.00;17.00;;;;;21.12;88.04;100905.88;5073942;27;45396;-78
2022/06/05 10:00:59;;;;;;;;;18.00;18.00;;;;;21.08;87.45;100905.56;5077752;28;45465;-79
2022/06/05 10:03:35;;;;;;;;;16.67;16.67;;;;;20.97;87.63;100891.03;5079373;28;45371;-78
2022/06/05 10:06:34;;;;;;;;;19.67;19.67;;;;;21.03;88.07;100898.16;5098352;27;45465;-77
2022/06/05 10:08:59;;;;;;;;;15.00;15.00;;;;;20.98;87.87;100894.56;5114008;27;45441;-77
2022/06/05 10:11:42;;;;;;;;;15.33;15.00;;;;;20.92;87.77;100894.44;5102373;27;46405;-77
2022/06/05 10:14:38;;;;;;;;;16.67;16.67;;;;;20.96;87.84;100899.38;5105812;27;45241;-77
2022/06/05 10:17:41;;;;;;;;;16.33;16.33;;;;;20.97;88.37;100899.13;5102090;27;45460;-77
2022/06/05 10:20:12;;;;;;;;;19.00;18.33;;;;;21.01;88.24;100907.59;5100251;27;45339;-75
2022/06/05 10:23:03;;;;;;;;;17.33;17.33;;;;;21.04;88.56;100921.41;5106333;27;45289;-76
2022/06/05 10:25:59;;;;;;;;;18.67;18.67;;;;;21.03;88.60;100910.84;5112920;27;47101;-76
2022/06/05 10:28:28;;;;;;;;;19.00;19.00;;;;;21.18;89.40;100913.03;5115979;27;45449;-75
2022/06/05 10:31:01;;;;;;;;;19.33;19.33;;;;;21.30;89.21;100916.50;5108979;27;45210;-75
2022/06/05 10:33:39;;;;;;;;;22.00;22.00;;;;;21.39;89.54;100921.50;5103262;27;47142;-75
2022/06/05 10:36:16;;;;;;;;;17.00;17.00;;;;;21.46;89.21;100921.38;5100148;27;45987;-75
2022/06/05 10:38:42;;;;;;;;;20.00;20.00;;;;;21.50;88.24;100911.69;5099435;27;45210;-75
2022/06/05 10:41:13;;;;;;;;;21.00;20.00;;;;;21.52;88.69;100915.78;5100571;27;45496;-75
2022/06/05 10:43:39;;;;;;;;;19.33;18.33;;;;;21.49;87.94;100896.56;5102875;27;45323;-76
2022/06/05 10:46:18;;;;;;;;;19.33;19.33;;;;;21.61;87.84;100918.09;5102836;27;45264;-75
2022/06/05 10:48:55;;;;;;;;;18.33;18.33;;;;;21.71;88.58;100920.97;5102815;27;45375;-75
2022/06/05 10:51:33;;;;;;;;;18.33;18.33;;;;;21.70;87.90;100911.25;5103141;27;45301;-76
2022/06/05 10:54:13;;;;;;;;;18.00;18.00;;;;;21.79;87.05;100920.59;5102811;27;45279;-76
2022/06/05 10:56:55;;;;;;;;;16.00;16.00;;;;;21.81;86.72;100921.19;5102535;27;45468;-77
2022/06/05 10:59:36;;;;;;;;;14.67;14.67;;;;;21.85;86.71;100918.78;5102934;27;45299;-75
2022/06/05 11:02:24;;;;;;;;;19.00;18.67;;;;;21.84;85.76;100930.69;5102727;27;45365;-76
2022/06/05 11:05:18;;;;;;;;;20.33;19.33;;;;;21.86;86.43;100931.25;5093385;27;45456;-76
2022/06/05 11:08:02;;;;;;;;;18.67;18.67;;;;;21.88;85.96;100933.72;5081825;28;45459;-77
2022/06/05 11:13:44;;;;;;;;;20.67;20.00;;;;;21.95;85.82;100939.78;5081840;28;45501;-76
2022/06/05 11:16:50;;;;;;;;;20.33;19.33;;;;;22.04;85.62;100945.59;5114626;27;46879;-78
2022/06/05 11:19:50;;;;;;;;;18.00;17.00;;;;;22.01;84.14;100940.69;5081691;27;46318;-78
2022/06/05 11:22:19;;;;;;;;;21.00;21.00;;;;;21.94;84.25;100938.16;5069470;27;45426;-78
2022/06/05 11:24:48;;;;;;;;;23.00;20.00;;;;;21.92;83.69;100929.44;5080937;28;45162;-76
2022/06/05 11:27:49;;;;;;;;;19.00;19.00;;;;;21.94;83.73;100948.97;5081941;28;45374;-73
2022/06/05 11:30:25;;;;;;;;;17.00;17.00;;;;;21.91;82.49;100958.38;5082722;27;45286;-75
2022/06/05 11:33:09;;;;;;;;;19.33;19.33;;;;;21.79;83.46;100944.94;5081879;27;45268;-73
2022/06/05 11:35:57;;;;;;;;;17.00;15.00;;;;;21.83;82.25;100956.09;5082124;27;45173;-73
2022/06/05 11:38:46;;;;;;;;;22.00;22.00;;;;;21.77;82.22;100968.72;5087805;28;45366;-76
2022/06/05 11:41:12;;;;;;;;;18.00;17.67;;;;;21.74;82.69;100969.19;5081425;28;46728;-72
2022/06/05 11:43:40;;;;;;;;;21.67;20.67;;;;;21.72;82.12;100968.59;5080263;28;45385;-73
2022/06/05 11:46:11;;;;;;;;;22.67;22.67;;;;;21.70;82.23;100970.75;5080482;28;45321;-72
2022/06/05 11:49:11;;;;;;;;;22.67;22.67;;;;;21.67;81.51;100984.75;5081394;28;45389;-73
2022/06/05 11:51:46;;;;;;;;;19.33;18.67;;;;;21.63;82.15;100984.41;5077038;27;46368;-73